Time,TemperatureF,DewpointF,PressureIn,WindDirection,WindDirectionDegrees,WindSpeedMPH,WindSpeedGustMPH,Humidity,HourlyPrecipIn,Conditions,Clouds,dailyrainin,SoftwareType,DateUTC
2013-02-24 00:00:00,24.9,7.1,30.06,East,86,6.0,7.0,46,0.00,,---,0.01,VWS V14.01,2013-02-24 08:00:00,
2013-02-24 00:05:00,24.8,7.0,30.07,ENE,57,4.0,4.0,46,0.00,,---,0.00,VWS V14.01,2013-02-24 08:05:00,
2013-02-24 00:10:00,24.7,6.9,30.07,East,94,1.0,7.0,46,0.00,,---,0.00,VWS V14.01,2013-02-24 08:10:00,
2013-02-24 00:15:00,24.6,5.8,30.06,East,90,3.0,3.0,44,0.00,,---,0.00,VWS V14.01,2013-02-24 08:15:00,
2013-02-24 00:20:00,24.5,5.2,30.07,SSE,155,1.0,3.0,43,0.00,,---,0.00,VWS V14.01,2013-02-24 08:20:00,
2013-02-24 00:25:00,24.3,4.5,30.06,ESE,105,2.0,4.0,42,0.00,,---,0.00,VWS V14.01,2013-02-24 08:25:00,
2013-02-24 00:30:00,24.2,4.4,30.06,East,101,6.0,7.0,42,0.00,,---,0.00,VWS V14.01,2013-02-24 08:30:00,
2013-02-24 00:35:00,24.1,3.8,30.07,East,88,2.0,6.0,41,0.00,,---,0.00,VWS V14.01,2013-02-24 08:35:00,
2013-02-24 00:40:00,24.0,3.7,30.08,ENE,70,4.0,7.0,41,0.00,,---,0.00,VWS V14.01,2013-02-24 08:40:00,
2013-02-24 00:45:00,23.9,3.1,30.07,NNE,13,4.0,4.0,40,0.00,,---,0.00,VWS V14.01,2013-02-24 08:45:00,
2013-02-24 00:51:00,23.9,2.6,30.07,ENE,73,0.0,3.0,39,0.00,,---,0.00,VWS V14.01,2013-02-24 08:51:00,
2013-02-24 00:56:00,23.8,2.5,30.08,ENE,68,2.0,9.0,39,0.00,,---,0.00,VWS V14.01,2013-02-24 08:56:00,
2013-02-24 01:01:00,23.7,2.4,30.08,ENE,66,3.0,4.0,39,0.00,,---,0.00,VWS V14.01,2013-02-24 09:01:00,
2013-02-24 01:06:00,23.6,1.7,30.08,ENE,72,2.0,6.0,38,0.00,,---,0.00,VWS V14.01,2013-02-24 09:06:00,
2013-02-24 01:11:00,23.5,1.6,30.08,NNE,25,3.0,8.0,38,0.00,,---,0.00,VWS V14.01,2013-02-24 09:11:00,
2013-02-24 01:16:00,23.4,1.5,30.07,NNW,334,3.0,7.0,38,0.00,,---,0.00,VWS V14.01,2013-02-24 09:16:00,
2013-02-24 01:21:00,23.4,2.7,30.08,SSE,150,0.0,1.0,40,0.00,,---,0.00,VWS V14.01,2013-02-24 09:21:00,
2013-02-24 01:26:00,23.2,1.9,30.08,SSE,157,0.0,1.0,39,0.00,,---,0.00,VWS V14.01,2013-02-24 09:26:00,
2013-02-24 01:31:00,23.0,2.3,30.08,ESE,117,1.0,2.0,40,0.00,,---,0.00,VWS V14.01,2013-02-24 09:31:00,
2013-02-24 01:36:00,23.0,1.8,30.09,South,170,0.0,3.0,39,0.00,,---,0.00,VWS V14.01,2013-02-24 09:36:00,
2013-02-24 01:41:00,22.9,1.1,30.09,West,274,0.0,0.0,38,0.00,,---,0.00,VWS V14.01,2013-02-24 09:41:00,
2013-02-24 01:46:00,22.8,1.0,30.08,WSW,257,1.0,1.0,38,0.00,,---,0.00,VWS V14.01,2013-02-24 09:46:00,
2013-02-24 01:51:00,22.8,0.4,30.08,North,357,0.0,2.0,37,0.00,,---,0.00,VWS V14.01,2013-02-24 09:51:00,
2013-02-24 01:56:00,22.9,1.1,30.07,North,352,0.0,1.0,38,0.00,,---,0.00,VWS V14.01,2013-02-24 09:56:00,
2013-02-24 02:01:00,22.8,0.4,30.07,NNE,21,4.0,4.0,36,0.00,,---,0.00,VWS V14.01,2013-02-24 10:01:00,
2013-02-24 02:06:00,22.7,0.4,30.08,NE,46,5.0,5.0,36,0.00,,---,0.00,VWS V14.01,2013-02-24 10:06:00,
2013-02-24 02:11:00,22.6,0.4,30.07,North,6,4.0,9.0,35,0.00,,---,0.00,VWS V14.01,2013-02-24 10:11:00,
2013-02-24 02:16:00,22.5,0.4,30.06,ENE,64,8.0,8.0,35,0.00,,---,0.00,VWS V14.01,2013-02-24 10:16:00,
2013-02-24 02:21:00,22.5,0.4,30.06,NW,321,2.0,2.0,34,0.00,,---,0.00,VWS V14.01,2013-02-24 10:21:00,
2013-02-24 02:26:00,22.3,0.4,30.06,NNW,334,1.0,2.0,32,0.00,,---,0.00,VWS V14.01,2013-02-24 10:26:00,
2013-02-24 02:31:00,22.3,0.4,30.05,NE,44,1.0,5.0,33,0.00,,---,0.00,VWS V14.01,2013-02-24 10:31:00,
2013-02-24 02:36:00,22.3,0.4,30.05,NNW,340,4.0,5.0,30,0.00,,---,0.00,VWS V14.01,2013-02-24 10:36:00,
2013-02-24 02:41:00,22.2,0.4,30.05,NNE,16,3.0,6.0,30,0.00,,---,0.00,VWS V14.01,2013-02-24 10:41:00,
2013-02-24 02:46:00,22.2,0.4,30.05,NE,34,4.0,7.0,29,0.00,,---,0.00,VWS V14.01,2013-02-24 10:46:00,
2013-02-24 02:51:00,22.3,0.4,30.04,NNE,31,14.0,14.0,27,0.00,,---,0.00,VWS V14.01,2013-02-24 10:51:00,
2013-02-24 02:56:00,22.3,0.4,30.04,NE,34,3.0,3.0,29,0.00,,---,0.00,VWS V14.01,2013-02-24 10:56:00,
2013-02-24 03:02:00,22.2,0.4,30.03,ENE,61,7.0,8.0,29,0.00,,---,0.00,VWS V14.01,2013-02-24 11:02:00,
2013-02-24 03:07:00,22.2,0.4,30.04,East,85,3.0,3.0,28,0.00,,---,0.00,VWS V14.01,2013-02-24 11:07:00,
2013-02-24 03:12:00,22.1,0.4,30.03,NE,40,16.0,16.0,29,0.00,,---,0.00,VWS V14.01,2013-02-24 11:12:00,
2013-02-24 03:17:00,22.2,0.4,30.04,NNE,25,7.0,7.0,28,0.00,,---,0.00,VWS V14.01,2013-02-24 11:17:00,
2013-02-24 03:22:00,22.0,0.4,30.04,NW,324,4.0,6.0,30,0.00,,---,0.00,VWS V14.01,2013-02-24 11:22:00,
2013-02-24 03:27:00,21.9,0.4,30.04,NNE,16,2.0,5.0,30,0.00,,---,0.00,VWS V14.01,2013-02-24 11:27:00,
2013-02-24 03:32:00,21.8,0.4,30.04,ENE,58,3.0,6.0,30,0.00,,---,0.00,VWS V14.01,2013-02-24 11:32:00,
2013-02-24 03:37:00,21.7,0.4,30.04,NNW,335,7.0,14.0,32,0.00,,---,0.00,VWS V14.01,2013-02-24 11:37:00,
2013-02-24 03:42:00,21.6,0.4,30.04,SE,143,3.0,12.0,30,0.00,,---,0.00,VWS V14.01,2013-02-24 11:42:00,
2013-02-24 03:47:00,21.6,0.4,30.03,NE,52,3.0,8.0,30,0.00,,---,0.00,VWS V14.01,2013-02-24 11:47:00,
2013-02-24 03:52:00,21.5,0.4,30.03,NNE,20,1.0,3.0,31,0.00,,---,0.00,VWS V14.01,2013-02-24 11:52:00,
2013-02-24 03:57:00,21.5,0.4,30.03,WNW,288,3.0,3.0,30,0.00,,---,0.00,VWS V14.01,2013-02-24 11:57:00,
2013-02-24 04:02:00,21.5,0.4,30.03,ENE,58,3.0,8.0,30,0.00,,---,0.00,VWS V14.01,2013-02-24 12:02:00,
2013-02-24 04:07:00,21.6,0.4,30.04,North,356,4.0,8.0,29,0.00,,---,0.00,VWS V14.01,2013-02-24 12:07:00,
2013-02-24 04:12:00,21.6,0.4,30.04,ENE,75,4.0,4.0,29,0.00,,---,0.00,VWS V14.01,2013-02-24 12:12:00,
2013-02-24 04:17:00,21.6,0.4,30.04,NE,39,3.0,4.0,30,0.00,,---,0.00,VWS V14.01,2013-02-24 12:17:00,
2013-02-24 04:22:00,21.5,0.4,30.04,NE,39,7.0,11.0,29,0.00,,---,0.00,VWS V14.01,2013-02-24 12:22:00,
2013-02-24 04:27:00,21.6,0.4,30.04,ENE,57,7.0,12.0,30,0.00,,---,0.00,VWS V14.01,2013-02-24 12:27:00,
2013-02-24 04:32:00,21.5,0.4,30.04,NE,46,6.0,11.0,32,0.00,,---,0.00,VWS V14.01,2013-02-24 12:32:00,
2013-02-24 04:37:00,21.5,0.4,30.03,North,353,6.0,6.0,31,0.00,,---,0.00,VWS V14.01,2013-02-24 12:37:00,
2013-02-24 04:42:00,21.4,0.4,30.04,NE,52,4.0,10.0,33,0.00,,---,0.00,VWS V14.01,2013-02-24 12:42:00,
2013-02-24 04:48:00,21.2,0.4,30.04,NE,42,7.0,9.0,33,0.00,,---,0.00,VWS V14.01,2013-02-24 12:48:00,
2013-02-24 04:53:00,21.2,0.4,30.03,ENE,73,5.0,11.0,33,0.00,,---,0.00,VWS V14.01,2013-02-24 12:53:00,
2013-02-24 04:58:00,21.2,0.4,30.04,North,11,4.0,7.0,33,0.00,,---,0.00,VWS V14.01,2013-02-24 12:58:00,
2013-02-24 05:03:00,21.2,0.4,30.03,NW,323,4.0,16.0,33,0.00,,---,0.00,VWS V14.01,2013-02-24 13:03:00,
2013-02-24 05:08:00,21.3,0.4,30.03,ENE,71,10.0,10.0,33,0.00,,---,0.00,VWS V14.01,2013-02-24 13:08:00,
2013-02-24 05:13:00,21.4,0.4,30.03,NNE,33,7.0,16.0,31,0.00,,---,0.00,VWS V14.01,2013-02-24 13:13:00,
2013-02-24 05:18:00,21.6,0.4,30.03,North,8,5.0,17.0,30,0.00,,---,0.00,VWS V14.01,2013-02-24 13:18:00,
2013-02-24 05:23:00,21.6,0.4,30.04,North,354,8.0,9.0,30,0.00,,---,0.00,VWS V14.01,2013-02-24 13:23:00,
2013-02-24 05:28:00,21.7,0.4,30.04,NE,37,12.0,12.0,29,0.00,,---,0.00,VWS V14.01,2013-02-24 13:28:00,
2013-02-24 05:33:00,21.6,0.4,30.04,North,357,6.0,8.0,31,0.00,,---,0.00,VWS V14.01,2013-02-24 13:33:00,
2013-02-24 05:38:00,21.6,0.4,30.05,NE,34,8.0,19.0,29,0.00,,---,0.00,VWS V14.01,2013-02-24 13:38:00,
2013-02-24 05:43:00,21.7,0.4,30.04,NE,50,4.0,13.0,29,0.00,,---,0.00,VWS V14.01,2013-02-24 13:43:00,
2013-02-24 05:48:00,21.6,0.4,30.05,NNE,32,13.0,13.0,30,0.00,,---,0.00,VWS V14.01,2013-02-24 13:48:00,
2013-02-24 05:53:00,21.7,0.4,30.05,ENE,73,2.0,6.0,29,0.00,,---,0.00,VWS V14.01,2013-02-24 13:53:00,
2013-02-24 05:58:00,21.8,0.4,30.06,NE,34,3.0,11.0,27,0.00,,---,0.00,VWS V14.01,2013-02-24 13:58:00,
2013-02-24 06:03:00,21.8,0.4,30.06,NNE,23,4.0,10.0,28,0.00,,---,0.00,VWS V14.01,2013-02-24 14:03:00,
2013-02-24 06:08:00,21.7,0.4,30.06,NNW,327,5.0,6.0,29,0.00,,---,0.00,VWS V14.01,2013-02-24 14:08:00,
2013-02-24 06:13:00,21.7,0.4,30.06,NNE,18,14.0,14.0,28,0.00,,---,0.00,VWS V14.01,2013-02-24 14:13:00,
2013-02-24 06:19:00,21.7,0.4,30.05,NE,37,5.0,12.0,29,0.00,,---,0.00,VWS V14.01,2013-02-24 14:19:00,
2013-02-24 06:24:00,21.7,0.4,30.06,North,8,7.0,9.0,29,0.00,,---,0.00,VWS V14.01,2013-02-24 14:24:00,
2013-02-24 06:29:00,21.7,0.4,30.06,NE,42,5.0,7.0,29,0.00,,---,0.00,VWS V14.01,2013-02-24 14:29:00,
2013-02-24 06:34:00,21.8,0.4,30.07,ENE,60,4.0,16.0,27,0.00,,---,0.00,VWS V14.01,2013-02-24 14:34:00,
2013-02-24 06:39:00,21.9,0.4,30.07,NNE,24,6.0,6.0,30,0.00,,---,0.00,VWS V14.01,2013-02-24 14:39:00,
2013-02-24 06:44:00,21.7,0.4,30.07,NNE,13,4.0,15.0,29,0.00,,---,0.00,VWS V14.01,2013-02-24 14:44:00,
2013-02-24 06:49:00,21.9,0.4,30.08,NW,304,9.0,10.0,28,0.00,,---,0.00,VWS V14.01,2013-02-24 14:49:00,
2013-02-24 06:54:00,22.0,0.4,30.08,NNW,343,3.0,9.0,30,0.00,,---,0.00,VWS V14.01,2013-02-24 14:54:00,
2013-02-24 06:59:00,22.1,0.4,30.08,NNW,328,4.0,8.0,28,0.00,,---,0.00,VWS V14.01,2013-02-24 14:59:00,
2013-02-24 07:04:00,22.2,0.4,30.08,NE,34,9.0,9.0,25,0.00,,---,0.00,VWS V14.01,2013-02-24 15:04:00,
2013-02-24 07:09:00,22.6,0.4,30.09,NNW,340,4.0,9.0,26,0.00,,---,0.00,VWS V14.01,2013-02-24 15:09:00,
2013-02-24 07:14:00,22.6,0.4,30.09,ENE,73,4.0,9.0,29,0.00,,---,0.00,VWS V14.01,2013-02-24 15:14:00,
2013-02-24 07:19:00,22.5,0.4,30.10,NNE,33,9.0,9.0,29,0.00,,---,0.00,VWS V14.01,2013-02-24 15:19:00,
2013-02-24 07:24:00,22.4,0.4,30.10,North,11,5.0,6.0,31,0.00,,---,0.00,VWS V14.01,2013-02-24 15:24:00,
2013-02-24 07:29:00,22.5,0.4,30.10,NNE,19,4.0,8.0,30,0.00,,---,0.00,VWS V14.01,2013-02-24 15:29:00,
2013-02-24 07:34:00,22.8,0.4,30.10,NW,316,4.0,7.0,29,0.00,,---,0.00,VWS V14.01,2013-02-24 15:34:00,
2013-02-24 07:39:00,23.1,0.4,30.10,North,3,7.0,7.0,28,0.00,,---,0.00,VWS V14.01,2013-02-24 15:39:00,
2013-02-24 07:45:00,23.3,0.4,30.11,NNE,32,7.0,9.0,28,0.00,,---,0.00,VWS V14.01,2013-02-24 15:45:00,
2013-02-24 07:50:00,23.5,0.4,30.11,NE,37,6.0,11.0,27,0.00,,---,0.00,VWS V14.01,2013-02-24 15:50:00,
2013-02-24 07:55:00,23.5,0.4,30.11,NNW,342,8.0,8.0,28,0.00,,---,0.00,VWS V14.01,2013-02-24 15:55:00,
2013-02-24 08:00:00,23.6,0.4,30.11,NNE,23,4.0,7.0,28,0.00,,---,0.00,VWS V14.01,2013-02-24 16:00:00,
2013-02-24 08:05:00,23.8,0.4,30.11,NNW,347,7.0,10.0,28,0.00,,---,0.00,VWS V14.01,2013-02-24 16:05:00,
2013-02-24 08:10:00,24.0,0.4,30.10,NE,54,8.0,8.0,27,0.00,,---,0.00,VWS V14.01,2013-02-24 16:10:00,
2013-02-24 08:15:00,24.2,0.4,30.10,NNW,343,5.0,8.0,26,0.00,,---,0.00,VWS V14.01,2013-02-24 16:15:00,
2013-02-24 08:20:00,24.2,0.4,30.11,NE,52,3.0,8.0,27,0.00,,---,0.00,VWS V14.01,2013-02-24 16:20:00,
2013-02-24 08:25:00,24.2,0.4,30.11,NW,314,3.0,13.0,27,0.00,,---,0.00,VWS V14.01,2013-02-24 16:25:00,
2013-02-24 08:30:00,24.4,0.4,30.12,NNE,13,7.0,13.0,29,0.00,,---,0.00,VWS V14.01,2013-02-24 16:30:00,
2013-02-24 08:35:00,24.4,0.4,30.11,North,1,8.0,9.0,29,0.00,,---,0.00,VWS V14.01,2013-02-24 16:35:00,
2013-02-24 08:40:00,24.6,0.4,30.12,NNE,24,14.0,14.0,28,0.00,,---,0.00,VWS V14.01,2013-02-24 16:40:00,
2013-02-24 08:45:00,24.8,0.4,30.12,ENE,63,11.0,12.0,28,0.00,,---,0.00,VWS V14.01,2013-02-24 16:45:00,
2013-02-24 08:50:00,25.0,0.4,30.13,NNE,26,5.0,12.0,29,0.00,,---,0.00,VWS V14.01,2013-02-24 16:50:00,
2013-02-24 08:55:00,25.0,0.4,30.13,NW,315,3.0,10.0,29,0.00,,---,0.00,VWS V14.01,2013-02-24 16:55:00,
2013-02-24 09:00:00,25.2,0.4,30.14,ENE,71,5.0,17.0,29,0.00,,---,0.00,VWS V14.01,2013-02-24 17:00:00,
2013-02-24 09:05:00,25.2,0.4,30.14,NNE,32,4.0,15.0,27,0.00,,---,0.00,VWS V14.01,2013-02-24 17:05:00,
2013-02-24 09:10:00,25.4,0.4,30.13,NNW,348,4.0,11.0,27,0.00,,---,0.00,VWS V14.01,2013-02-24 17:10:00,
2013-02-24 09:15:00,25.7,0.4,30.13,NE,34,5.0,8.0,29,0.00,,---,0.00,VWS V14.01,2013-02-24 17:15:00,
2013-02-24 09:20:00,25.8,0.4,30.14,NNE,30,5.0,10.0,28,0.00,,---,0.00,VWS V14.01,2013-02-24 17:20:00,
2013-02-24 09:25:00,25.6,0.4,30.14,NNE,14,9.0,9.0,29,0.00,,---,0.00,VWS V14.01,2013-02-24 17:25:00,
2013-02-24 09:30:00,25.8,0.4,30.14,ENE,72,5.0,15.0,28,0.00,,---,0.00,VWS V14.01,2013-02-24 17:30:00,
2013-02-24 09:35:00,25.9,0.4,30.15,NNE,25,11.0,14.0,29,0.00,,---,0.00,VWS V14.01,2013-02-24 17:35:00,
2013-02-24 09:40:00,25.8,0.4,30.15,North,355,5.0,11.0,28,0.00,,---,0.00,VWS V14.01,2013-02-24 17:40:00,
2013-02-24 09:45:00,25.9,0.4,30.15,ENE,71,4.0,7.0,29,0.00,,---,0.00,VWS V14.01,2013-02-24 17:45:00,
2013-02-24 09:50:00,26.3,0.4,30.15,NE,44,3.0,9.0,29,0.00,,---,0.00,VWS V14.01,2013-02-24 17:50:00,
2013-02-24 09:55:00,26.4,0.4,30.15,NE,41,6.0,21.0,30,0.00,,---,0.00,VWS V14.01,2013-02-24 17:55:00,
2013-02-24 10:00:00,26.3,0.4,30.14,NNE,13,7.0,10.0,28,0.00,,---,0.00,VWS V14.01,2013-02-24 18:00:00,
2013-02-24 10:05:00,26.8,0.4,30.14,NE,44,4.0,8.0,30,0.00,,---,0.00,VWS V14.01,2013-02-24 18:05:00,
2013-02-24 10:11:00,27.1,0.4,30.14,NNE,14,4.0,9.0,29,0.00,,---,0.00,VWS V14.01,2013-02-24 18:11:00,
2013-02-24 10:16:00,27.2,0.6,30.14,NNE,29,3.0,7.0,30,0.00,,---,0.00,VWS V14.01,2013-02-24 18:16:00,
2013-02-24 10:21:00,27.8,0.4,30.14,ENE,68,3.0,9.0,30,0.00,,---,0.00,VWS V14.01,2013-02-24 18:21:00,
2013-02-24 10:26:00,27.9,0.6,30.14,NW,323,2.0,8.0,27,0.00,,---,0.00,VWS V14.01,2013-02-24 18:26:00,
2013-02-24 10:31:00,27.7,0.6,30.14,NNE,13,5.0,7.0,27,0.00,,---,0.00,VWS V14.01,2013-02-24 18:31:00,
2013-02-24 10:36:00,27.8,0.6,30.14,NNE,29,6.0,10.0,27,0.00,,---,0.00,VWS V14.01,2013-02-24 18:36:00,
2013-02-24 10:41:00,27.7,0.6,30.14,ENE,73,3.0,19.0,27,0.00,,---,0.00,VWS V14.01,2013-02-24 18:41:00,
2013-02-24 10:46:00,28.0,0.6,30.14,ENE,77,8.0,16.0,28,0.00,,---,0.00,VWS V14.01,2013-02-24 18:46:00,
2013-02-24 10:51:00,28.3,0.6,30.14,NNE,12,12.0,12.0,26,0.00,,---,0.00,VWS V14.01,2013-02-24 18:51:00,
2013-02-24 10:56:00,28.5,0.6,30.14,NNE,26,12.0,16.0,25,0.00,,---,0.00,VWS V14.01,2013-02-24 18:56:00,
2013-02-24 11:01:00,28.4,0.6,30.14,NE,36,8.0,9.0,26,0.00,,---,0.00,VWS V14.01,2013-02-24 19:01:00,
2013-02-24 11:06:00,28.5,0.6,30.14,NE,44,4.0,6.0,26,0.00,,---,0.00,VWS V14.01,2013-02-24 19:06:00,
2013-02-24 11:11:00,28.6,0.6,30.14,NNE,25,12.0,12.0,25,0.00,,---,0.00,VWS V14.01,2013-02-24 19:11:00,
2013-02-24 11:16:00,28.3,0.6,30.14,SSE,152,4.0,12.0,25,0.00,,---,0.00,VWS V14.01,2013-02-24 19:16:00,
2013-02-24 11:21:00,28.2,0.6,30.14,NE,42,3.0,9.0,26,0.00,,---,0.00,VWS V14.01,2013-02-24 19:21:00,
2013-02-24 11:26:00,28.5,0.6,30.15,NNE,15,3.0,10.0,27,0.00,,---,0.00,VWS V14.01,2013-02-24 19:26:00,
2013-02-24 11:31:00,28.6,0.6,30.15,NW,326,5.0,5.0,25,0.00,,---,0.00,VWS V14.01,2013-02-24 19:31:00,
2013-02-24 11:36:00,29.1,0.6,30.16,ENE,59,1.0,4.0,26,0.00,,---,0.00,VWS V14.01,2013-02-24 19:36:00,
2013-02-24 11:41:00,29.7,0.6,30.15,NNE,20,6.0,8.0,26,0.00,,---,0.00,VWS V14.01,2013-02-24 19:41:00,
2013-02-24 11:47:00,29.5,0.6,30.16,NNE,23,7.0,11.0,25,0.00,,---,0.00,VWS V14.01,2013-02-24 19:47:00,
2013-02-24 11:52:00,29.4,0.6,30.16,ENE,60,2.0,8.0,25,0.00,,---,0.00,VWS V14.01,2013-02-24 19:52:00,
2013-02-24 11:57:00,29.8,0.6,30.16,NNW,328,1.0,5.0,26,0.00,,---,0.00,VWS V14.01,2013-02-24 19:57:00,
2013-02-24 12:02:00,30.3,0.3,30.16,NNE,26,2.0,10.0,26,0.00,,---,0.00,VWS V14.01,2013-02-24 20:02:00,
2013-02-24 12:07:00,30.0,0.9,30.16,NNE,16,4.0,4.0,28,0.00,,---,0.00,VWS V14.01,2013-02-24 20:07:00,
2013-02-24 12:12:00,30.4,0.4,30.16,NNE,29,8.0,11.0,27,0.00,,---,0.00,VWS V14.01,2013-02-24 20:12:00,
2013-02-24 12:17:00,30.4,0.4,30.16,ENE,71,2.0,8.0,24,0.00,,---,0.00,VWS V14.01,2013-02-24 20:17:00,
2013-02-24 12:22:00,30.1,0.4,30.16,NE,36,1.0,6.0,24,0.00,,---,0.00,VWS V14.01,2013-02-24 20:22:00,
2013-02-24 12:27:00,30.0,0.4,30.16,NNW,337,5.0,8.0,25,0.00,,---,0.00,VWS V14.01,2013-02-24 20:27:00,
2013-02-24 12:32:00,30.2,0.4,30.17,ENE,65,6.0,9.0,24,0.00,,---,0.00,VWS V14.01,2013-02-24 20:32:00,
2013-02-24 12:37:00,30.1,0.4,30.16,SE,139,4.0,11.0,22,0.00,,---,0.00,VWS V14.01,2013-02-24 20:37:00,
2013-02-24 12:42:00,30.1,0.4,30.16,ENE,71,3.0,4.0,23,0.00,,---,0.00,VWS V14.01,2013-02-24 20:42:00,
2013-02-24 12:47:00,30.3,0.4,30.16,ENE,59,9.0,12.0,22,0.00,,---,0.00,VWS V14.01,2013-02-24 20:47:00,
2013-02-24 12:52:00,30.4,0.4,30.15,ENE,58,2.0,9.0,21,0.00,,---,0.00,VWS V14.01,2013-02-24 20:52:00,
2013-02-24 12:57:00,30.7,0.4,30.15,NNE,32,3.0,9.0,21,0.00,,---,0.00,VWS V14.01,2013-02-24 20:57:00,
2013-02-24 13:02:00,30.8,0.4,30.14,NE,42,6.0,6.0,21,0.00,,---,0.00,VWS V14.01,2013-02-24 21:02:00,
2013-02-24 13:07:00,30.6,0.4,30.15,NNE,15,16.0,16.0,20,0.00,,---,0.00,VWS V14.01,2013-02-24 21:07:00,
2013-02-24 13:12:00,30.8,0.4,30.15,NE,56,3.0,13.0,22,0.00,,---,0.00,VWS V14.01,2013-02-24 21:12:00,
2013-02-24 13:17:00,31.1,0.4,30.15,NE,46,3.0,12.0,21,0.00,,---,0.00,VWS V14.01,2013-02-24 21:17:00,
2013-02-24 13:22:00,31.0,0.4,30.15,NNE,23,7.0,15.0,20,0.00,,---,0.00,VWS V14.01,2013-02-24 21:22:00,
2013-02-24 13:27:00,30.9,0.4,30.14,ENE,72,7.0,11.0,20,0.00,,---,0.00,VWS V14.01,2013-02-24 21:27:00,
2013-02-24 13:32:00,31.0,0.4,30.14,NE,41,7.0,11.0,21,0.00,,---,0.00,VWS V14.01,2013-02-24 21:32:00,
2013-02-24 13:37:00,30.8,0.4,30.14,NNW,334,8.0,10.0,19,0.00,,---,0.00,VWS V14.01,2013-02-24 21:37:00,
2013-02-24 13:42:00,30.8,0.4,30.14,NW,305,6.0,9.0,18,0.00,,---,0.00,VWS V14.01,2013-02-24 21:42:00,
2013-02-24 13:47:00,31.2,0.4,30.14,NE,56,4.0,7.0,21,0.00,,---,0.00,VWS V14.01,2013-02-24 21:47:00,
2013-02-24 13:52:00,31.4,0.4,30.15,NE,52,4.0,7.0,20,0.00,,---,0.00,VWS V14.01,2013-02-24 21:52:00,
2013-02-24 13:57:00,31.4,0.4,30.17,NNE,25,11.0,14.0,18,0.00,,---,0.00,VWS V14.01,2013-02-24 21:57:00,
2013-02-24 14:02:00,31.3,0.4,30.16,NE,50,3.0,4.0,19,0.00,,---,0.00,VWS V14.01,2013-02-24 22:02:00,
2013-02-24 14:08:00,31.4,0.4,30.17,NNE,32,7.0,7.0,18,0.00,,---,0.00,VWS V14.01,2013-02-24 22:08:00,
2013-02-24 14:13:00,31.4,0.4,30.17,NE,56,1.0,9.0,17,0.00,,---,0.00,VWS V14.01,2013-02-24 22:13:00,
2013-02-24 14:18:00,31.2,0.4,30.17,NNE,30,4.0,4.0,17,0.00,,---,0.00,VWS V14.01,2013-02-24 22:18:00,
2013-02-24 14:23:00,31.4,0.4,30.17,ENE,62,3.0,7.0,17,0.00,,---,0.00,VWS V14.01,2013-02-24 22:23:00,
2013-02-24 14:28:00,31.9,0.4,30.17,WNW,300,4.0,4.0,18,0.00,,---,0.00,VWS V14.01,2013-02-24 22:28:00,
2013-02-24 14:33:00,32.0,0.4,30.17,East,81,1.0,6.0,17,0.00,,---,0.00,VWS V14.01,2013-02-24 22:33:00,
2013-02-24 14:38:00,32.0,0.4,30.17,West,259,1.0,5.0,20,0.00,,---,0.00,VWS V14.01,2013-02-24 22:38:00,
2013-02-24 14:43:00,32.4,0.4,30.18,East,87,4.0,6.0,17,0.00,,---,0.00,VWS V14.01,2013-02-24 22:43:00,
2013-02-24 14:48:00,32.2,0.4,30.17,ENE,59,2.0,8.0,17,0.00,,---,0.00,VWS V14.01,2013-02-24 22:48:00,
2013-02-24 14:53:00,32.3,0.4,30.17,NE,38,4.0,6.0,17,0.00,,---,0.00,VWS V14.01,2013-02-24 22:53:00,
2013-02-24 14:58:00,32.3,0.4,30.17,NE,36,5.0,13.0,17,0.00,,---,0.00,VWS V14.01,2013-02-24 22:58:00,
2013-02-24 15:03:00,32.0,0.4,30.16,WNW,298,3.0,3.0,17,0.00,,---,0.00,VWS V14.01,2013-02-24 23:03:00,
2013-02-24 15:08:00,32.0,0.4,30.16,NE,41,6.0,11.0,15,0.00,,---,0.00,VWS V14.01,2013-02-24 23:08:00,
2013-02-24 15:13:00,32.3,0.4,30.17,NNE,27,0.0,2.0,16,0.00,,---,0.00,VWS V14.01,2013-02-24 23:13:00,
2013-02-24 15:18:00,32.5,0.4,30.17,NW,315,0.0,1.0,15,0.00,,---,0.00,VWS V14.01,2013-02-24 23:18:00,
2013-02-24 15:23:00,32.6,0.4,30.19,East,81,4.0,9.0,15,0.00,,---,0.00,VWS V14.01,2013-02-24 23:23:00,
2013-02-24 15:28:00,32.1,0.4,30.18,NNE,32,5.0,5.0,13,0.00,,---,0.00,VWS V14.01,2013-02-24 23:28:00,
2013-02-24 15:33:00,31.8,0.4,30.18,East,86,0.0,4.0,17,0.00,,---,0.00,VWS V14.01,2013-02-24 23:33:00,
2013-02-24 15:38:00,31.7,0.4,30.18,WSW,242,0.0,1.0,18,0.00,,---,0.00,VWS V14.01,2013-02-24 23:38:00,
2013-02-24 15:43:00,31.8,0.4,30.18,North,5,1.0,3.0,18,0.00,,---,0.00,VWS V14.01,2013-02-24 23:43:00,
2013-02-24 15:48:00,31.9,0.4,30.18,NE,43,1.0,5.0,19,0.00,,---,0.00,VWS V14.01,2013-02-24 23:48:00,
2013-02-24 15:53:00,31.5,0.4,30.18,ENE,67,1.0,4.0,19,0.00,,---,0.00,VWS V14.01,2013-02-24 23:53:00,
2013-02-24 15:58:00,31.4,0.4,30.18,SSW,198,0.0,1.0,20,0.00,,---,0.00,VWS V14.01,2013-02-24 23:58:00,
2013-02-24 16:03:00,31.3,0.4,30.18,ENE,64,1.0,4.0,20,0.00,,---,0.00,VWS V14.01,2013-02-25 00:03:00,
2013-02-24 16:08:00,31.3,0.4,30.18,ENE,77,4.0,4.0,20,0.00,,---,0.00,VWS V14.01,2013-02-25 00:08:00,
2013-02-24 16:13:00,31.1,0.4,30.19,ENE,67,5.0,5.0,19,0.00,,---,0.00,VWS V14.01,2013-02-25 00:13:00,
2013-02-24 16:18:00,30.9,0.4,30.19,NE,37,2.0,5.0,19,0.00,,---,0.00,VWS V14.01,2013-02-25 00:18:00,
2013-02-24 16:23:00,30.8,0.4,30.19,NNE,19,3.0,3.0,20,0.00,,---,0.00,VWS V14.01,2013-02-25 00:23:00,
2013-02-24 16:28:00,30.7,0.4,30.19,ENE,62,1.0,9.0,21,0.00,,---,0.00,VWS V14.01,2013-02-25 00:28:00,
2013-02-24 16:33:00,30.6,0.4,30.20,NE,34,0.0,2.0,20,0.00,,---,0.00,VWS V14.01,2013-02-25 00:33:00,
2013-02-24 16:39:00,30.5,0.4,30.20,NNE,30,1.0,1.0,21,0.00,,---,0.00,VWS V14.01,2013-02-25 00:39:00,
2013-02-24 16:44:00,30.3,0.4,30.19,NNE,31,0.0,3.0,21,0.00,,---,0.00,VWS V14.01,2013-02-25 00:44:00,
2013-02-24 16:49:00,30.1,0.4,30.20,NNE,27,2.0,3.0,23,0.00,,---,0.00,VWS V14.01,2013-02-25 00:49:00,
2013-02-24 16:54:00,29.9,0.4,30.20,ENE,69,0.0,0.0,21,0.00,,---,0.00,VWS V14.01,2013-02-25 00:54:00,
2013-02-24 16:59:00,29.7,0.4,30.20,NNE,20,1.0,1.0,22,0.00,,---,0.00,VWS V14.01,2013-02-25 00:59:00,
2013-02-24 17:04:00,29.4,0.4,30.21,East,87,1.0,2.0,23,0.00,,---,0.00,VWS V14.01,2013-02-25 01:04:00,
2013-02-24 17:09:00,29.1,0.4,30.21,ENE,78,0.0,2.0,23,0.00,,---,0.00,VWS V14.01,2013-02-25 01:09:00,
2013-02-24 17:14:00,28.9,0.4,30.22,SE,143,1.0,1.0,24,0.00,,---,0.00,VWS V14.01,2013-02-25 01:14:00,
2013-02-24 17:19:00,28.6,0.4,30.23,East,80,0.0,1.0,24,0.00,,---,0.00,VWS V14.01,2013-02-25 01:19:00,
2013-02-24 17:24:00,28.4,0.4,30.23,NE,44,0.0,0.0,24,0.00,,---,0.00,VWS V14.01,2013-02-25 01:24:00,
2013-02-24 17:29:00,28.0,0.4,30.23,East,98,0.0,0.0,25,0.00,,---,0.00,VWS V14.01,2013-02-25 01:29:00,
2013-02-24 17:34:00,27.6,0.4,30.23,ESE,117,0.0,0.0,25,0.00,,---,0.00,VWS V14.01,2013-02-25 01:34:00,
2013-02-24 17:39:00,27.2,0.4,30.23,ESE,105,0.0,0.0,26,0.00,,---,0.00,VWS V14.01,2013-02-25 01:39:00,
2013-02-24 17:44:00,26.9,0.4,30.23,ESE,110,1.0,1.0,27,0.00,,---,0.00,VWS V14.01,2013-02-25 01:44:00,
2013-02-24 17:49:00,26.5,0.4,30.23,ESE,110,0.0,0.0,27,0.00,,---,0.00,VWS V14.01,2013-02-25 01:49:00,
2013-02-24 17:54:00,26.1,0.4,30.24,SE,132,0.0,0.0,27,0.00,,---,0.00,VWS V14.01,2013-02-25 01:54:00,
2013-02-24 17:59:00,25.9,0.4,30.24,East,83,0.0,0.0,27,0.00,,---,0.00,VWS V14.01,2013-02-25 01:59:00,
2013-02-24 18:04:00,25.7,0.4,30.24,SE,136,0.0,0.0,27,0.00,,---,0.00,VWS V14.01,2013-02-25 02:04:00,
2013-02-24 18:09:00,25.4,0.4,30.25,SE,136,0.0,0.0,27,0.00,,---,0.00,VWS V14.01,2013-02-25 02:09:00,
2013-02-24 18:14:00,25.1,0.4,30.25,SE,136,0.0,0.0,28,0.00,,---,0.00,VWS V14.01,2013-02-25 02:14:00,
2013-02-24 18:19:00,24.7,0.4,30.25,SE,136,0.0,0.0,29,0.00,,---,0.00,VWS V14.01,2013-02-25 02:19:00,
2013-02-24 18:24:00,24.5,0.4,30.25,SE,137,0.0,0.0,31,0.00,,---,0.00,VWS V14.01,2013-02-25 02:24:00,
2013-02-24 18:29:00,24.3,0.6,30.25,ESE,114,0.0,0.0,30,0.00,,---,0.00,VWS V14.01,2013-02-25 02:29:00,
2013-02-24 18:34:00,24.2,0.6,30.25,ESE,118,0.0,0.0,31,0.00,,---,0.00,VWS V14.01,2013-02-25 02:34:00,
2013-02-24 18:39:00,24.3,0.6,30.25,East,90,0.0,3.0,29,0.00,,---,0.00,VWS V14.01,2013-02-25 02:39:00,
2013-02-24 18:44:00,24.7,0.6,30.25,East,84,0.0,1.0,29,0.00,,---,0.00,VWS V14.01,2013-02-25 02:44:00,
2013-02-24 18:50:00,24.9,0.6,30.25,East,86,1.0,3.0,28,0.00,,---,0.00,VWS V14.01,2013-02-25 02:50:00,
2013-02-24 18:55:00,25.2,0.6,30.26,ESE,106,0.0,0.0,27,0.00,,---,0.00,VWS V14.01,2013-02-25 02:55:00,
2013-02-24 19:00:00,25.1,0.6,30.26,SE,141,0.0,0.0,27,0.00,,---,0.00,VWS V14.01,2013-02-25 03:00:00,
2013-02-24 19:05:00,24.8,0.6,30.26,SSE,163,0.0,0.0,29,0.00,,---,0.00,VWS V14.01,2013-02-25 03:05:00,
2013-02-24 19:10:00,24.5,0.2,30.27,ENE,68,0.0,0.0,33,0.00,,---,0.00,VWS V14.01,2013-02-25 03:10:00,
2013-02-24 19:15:00,24.0,0.5,30.27,NNW,347,0.0,0.0,33,0.00,,---,0.00,VWS V14.01,2013-02-25 03:15:00,
2013-02-24 19:20:00,23.7,0.8,30.27,NNW,347,0.0,0.0,34,0.00,,---,0.00,VWS V14.01,2013-02-25 03:20:00,
2013-02-24 19:25:00,23.2,1.4,30.27,NNW,347,0.0,0.0,38,0.00,,---,0.00,VWS V14.01,2013-02-25 03:25:00,
2013-02-24 19:30:00,22.7,1.2,30.28,NNW,347,0.0,0.0,31,0.00,,---,0.00,VWS V14.01,2013-02-25 03:30:00,
2013-02-24 19:35:00,22.5,1.2,30.28,NNW,347,0.0,0.0,31,0.00,,---,0.00,VWS V14.01,2013-02-25 03:35:00,
2013-02-24 19:40:00,22.3,1.2,30.28,NNW,347,0.0,0.0,28,0.00,,---,0.00,VWS V14.01,2013-02-25 03:40:00,
2013-02-24 19:45:00,22.4,1.2,30.28,SE,124,0.0,1.0,27,0.00,,---,0.00,VWS V14.01,2013-02-25 03:45:00,
2013-02-24 19:50:00,23.3,1.2,30.28,SE,124,0.0,0.0,25,0.00,,---,0.00,VWS V14.01,2013-02-25 03:50:00,
2013-02-24 19:55:00,23.7,1.2,30.28,SE,143,0.0,0.0,24,0.00,,---,0.00,VWS V14.01,2013-02-25 03:55:00,
2013-02-24 20:00:00,23.7,1.2,30.29,North,354,0.0,0.0,24,0.00,,---,0.00,VWS V14.01,2013-02-25 04:00:00,
2013-02-24 20:05:00,23.2,0.5,30.29,North,356,0.0,0.0,26,0.00,,---,0.00,VWS V14.01,2013-02-25 04:05:00,
2013-02-24 20:10:00,22.9,0.5,30.30,SW,229,0.0,0.0,37,0.00,,---,0.00,VWS V14.01,2013-02-25 04:10:00,
2013-02-24 20:15:00,22.3,1.1,30.30,SW,233,0.0,0.0,39,0.00,,---,0.00,VWS V14.01,2013-02-25 04:15:00,
2013-02-24 20:20:00,21.7,0.6,30.30,SW,233,0.0,0.0,39,0.00,,---,0.00,VWS V14.01,2013-02-25 04:20:00,
2013-02-24 20:25:00,21.3,0.0,30.31,SW,233,0.0,0.0,31,0.00,,---,0.00,VWS V14.01,2013-02-25 04:25:00,
2013-02-24 20:30:00,21.5,0.0,30.31,SSE,152,0.0,1.0,28,0.00,,---,0.00,VWS V14.01,2013-02-25 04:30:00,
2013-02-24 20:35:00,22.0,0.0,30.32,SSE,152,0.0,0.0,27,0.00,,---,0.00,VWS V14.01,2013-02-25 04:35:00,
2013-02-24 20:41:00,22.3,0.0,30.32,SE,145,0.0,0.0,26,0.00,,---,0.00,VWS V14.01,2013-02-25 04:41:00,
2013-02-24 20:46:00,22.0,0.4,30.32,SE,143,0.0,0.0,37,0.00,,---,0.00,VWS V14.01,2013-02-25 04:46:00,
2013-02-24 20:51:00,21.6,0.0,30.32,SE,143,0.0,0.0,38,0.00,,---,0.00,VWS V14.01,2013-02-25 04:51:00,
2013-02-24 20:56:00,21.3,0.2,30.32,SE,143,0.0,0.0,39,0.00,,---,0.00,VWS V14.01,2013-02-25 04:56:00,
2013-02-24 21:00:00,21.1,0.6,30.32,SE,143,0.0,0.0,40,0.00,,---,0.00,VWS V14.01,2013-02-25 05:00:00,
2013-02-24 21:03:00,20.9,1.9,30.32,SE,146,0.0,0.0,43,0.00,,---,0.00,VWS V14.01,2013-02-25 05:03:00,
2013-02-24 21:04:00,20.8,1.3,30.32,SSE,147,0.0,0.0,42,0.00,,---,0.00,VWS V14.01,2013-02-25 05:04:00,
2013-02-24 21:08:00,20.4,0.0,30.32,SE,146,0.0,0.0,40,0.00,,---,0.00,VWS V14.01,2013-02-25 05:08:00,
2013-02-24 21:13:00,20.2,0.0,30.32,SSE,147,0.0,0.0,35,0.00,,---,0.00,VWS V14.01,2013-02-25 05:13:00,
2013-02-24 21:18:00,20.8,0.0,30.32,SE,146,0.0,0.0,29,0.00,,---,0.00,VWS V14.01,2013-02-25 05:18:00,
2013-02-24 21:23:00,21.4,0.0,30.32,SE,146,0.0,0.0,31,0.00,,---,0.00,VWS V14.01,2013-02-25 05:23:00,
2013-02-24 21:28:00,21.9,0.0,30.32,SE,146,0.0,0.0,27,0.00,,---,0.00,VWS V14.01,2013-02-25 05:28:00,
2013-02-24 21:33:00,21.9,0.0,30.32,SE,146,0.0,0.0,26,0.00,,---,0.00,VWS V14.01,2013-02-25 05:33:00,
2013-02-24 21:38:00,21.5,0.0,30.32,SSE,147,0.0,0.0,30,0.00,,---,0.00,VWS V14.01,2013-02-25 05:38:00,
2013-02-24 21:43:00,20.9,0.0,30.32,SSE,147,0.0,0.0,30,0.00,,---,0.00,VWS V14.01,2013-02-25 05:43:00,
2013-02-24 21:48:00,20.0,0.0,30.32,SSE,149,0.0,0.0,39,0.00,,---,0.00,VWS V14.01,2013-02-25 05:48:00,
2013-02-24 21:53:00,19.7,0.0,30.33,SSW,201,0.0,0.0,37,0.00,,---,0.00,VWS V14.01,2013-02-25 05:53:00,
2013-02-24 21:58:00,19.2,0.1,30.33,SSW,201,0.0,0.0,41,0.00,,---,0.00,VWS V14.01,2013-02-25 05:58:00,
2013-02-24 22:03:00,18.8,1.1,30.33,SSW,201,0.0,0.0,42,0.00,,---,0.00,VWS V14.01,2013-02-25 06:03:00,
2013-02-24 22:08:00,18.8,2.4,30.34,SSW,201,0.0,0.0,48,0.00,,---,0.00,VWS V14.01,2013-02-25 06:08:00,
2013-02-24 22:13:00,18.6,2.6,30.34,SSW,198,0.0,0.0,49,0.00,,---,0.00,VWS V14.01,2013-02-25 06:13:00,
2013-02-24 22:19:00,18.5,1.6,30.34,SSW,198,0.0,0.0,47,0.00,,---,0.00,VWS V14.01,2013-02-25 06:19:00,
2013-02-24 22:24:00,18.4,1.5,30.34,SSW,198,0.0,0.0,47,0.00,,---,0.00,VWS V14.01,2013-02-25 06:24:00,
2013-02-24 22:29:00,18.4,0.1,30.34,SSW,198,0.0,0.0,44,0.00,,---,0.00,VWS V14.01,2013-02-25 06:29:00,
2013-02-24 22:34:00,18.4,0.1,30.34,SSW,198,0.0,0.0,44,0.00,,---,0.00,VWS V14.01,2013-02-25 06:34:00,
2013-02-24 22:39:00,18.3,0.1,30.34,SSW,198,0.0,0.0,42,0.00,,---,0.00,VWS V14.01,2013-02-25 06:39:00,
2013-02-24 22:44:00,18.2,0.1,30.35,SSW,210,0.0,0.0,41,0.00,,---,0.00,VWS V14.01,2013-02-25 06:44:00,
2013-02-24 22:49:00,18.5,0.1,30.35,SSW,210,0.0,0.0,39,0.00,,---,0.00,VWS V14.01,2013-02-25 06:49:00,
2013-02-24 22:54:00,18.5,0.1,30.35,SSW,207,0.0,0.0,37,0.00,,---,0.00,VWS V14.01,2013-02-25 06:54:00,
2013-02-24 22:59:00,18.6,0.1,30.36,SSW,207,0.0,0.0,38,0.00,,---,0.00,VWS V14.01,2013-02-25 06:59:00,
2013-02-24 23:04:00,18.3,0.1,30.36,SSW,207,0.0,0.0,42,0.00,,---,0.00,VWS V14.01,2013-02-25 07:04:00,
2013-02-24 23:09:00,17.9,0.1,30.36,SSW,207,0.0,0.0,43,0.00,,---,0.00,VWS V14.01,2013-02-25 07:09:00,
2013-02-24 23:14:00,17.8,0.1,30.36,SSW,207,0.0,1.0,39,0.00,,---,0.00,VWS V14.01,2013-02-25 07:14:00,
2013-02-24 23:19:00,18.4,0.1,30.36,SW,214,0.0,0.0,38,0.00,,---,0.00,VWS V14.01,2013-02-25 07:19:00,
2013-02-24 23:24:00,18.8,0.1,30.36,SW,217,0.0,0.0,37,0.00,,---,0.00,VWS V14.01,2013-02-25 07:24:00,
2013-02-24 23:29:00,18.8,0.1,30.36,SW,217,0.0,0.0,38,0.00,,---,0.00,VWS V14.01,2013-02-25 07:29:00,
2013-02-24 23:34:00,18.4,0.1,30.36,SW,217,0.0,0.0,39,0.00,,---,0.00,VWS V14.01,2013-02-25 07:34:00,
2013-02-24 23:39:00,17.9,0.1,30.36,SW,217,0.0,0.0,41,0.00,,---,0.00,VWS V14.01,2013-02-25 07:39:00,
2013-02-24 23:44:00,17.4,0.6,30.36,SW,217,0.0,0.0,47,0.00,,---,0.00,VWS V14.01,2013-02-25 07:44:00,
2013-02-24 23:49:00,16.9,0.2,30.36,SW,217,0.0,0.0,47,0.00,,---,0.00,VWS V14.01,2013-02-25 07:49:00,
2013-02-24 23:54:00,16.6,0.3,30.36,SSW,210,0.0,1.0,48,0.00,,---,0.00,VWS V14.01,2013-02-25 07:54:00,
2013-02-24 23:59:00,16.7,0.3,30.36,SSW,210,0.0,0.0,42,0.00,,---,0.00,VWS V14.01,2013-02-25 07:59:00,